createdAt,value
2023-04-29T00:02:25.069Z,6.40
2023-04-29T00:04:53.124Z,7.60
2023-04-29T00:07:21.274Z,7.27
2023-04-29T00:09:48.761Z,6.00
2023-04-29T00:12:16.396Z,7.70
2023-04-29T00:14:44.092Z,6.83
2023-04-29T00:17:11.710Z,6.07
2023-04-29T00:19:39.355Z,6.60
2023-04-29T00:22:06.866Z,6.80
2023-04-29T00:24:34.352Z,6.40
2023-04-29T00:27:02.855Z,6.70
2023-04-29T00:29:30.374Z,7.43
2023-04-29T00:31:58.057Z,7.67
2023-04-29T00:34:25.896Z,6.63
2023-04-29T00:36:53.448Z,7.67
2023-04-29T00:39:21.051Z,7.53
2023-04-29T00:41:48.712Z,7.73
2023-04-29T00:44:16.247Z,7.10
2023-04-29T00:46:44.006Z,8.13
2023-04-29T00:49:13.947Z,7.67
2023-04-29T00:51:41.695Z,6.67
2023-04-29T00:54:10.164Z,7.40
2023-04-29T00:56:39.930Z,7.60
2023-04-29T00:59:09.601Z,7.17
2023-04-29T01:01:40.811Z,7.63
2023-04-29T01:04:08.780Z,10.00
2023-04-29T01:06:54.712Z,6.93
2023-04-29T01:09:24.959Z,8.07
2023-04-29T01:12:14.825Z,6.40
2023-04-29T01:14:46.993Z,6.87
2023-04-29T01:17:19.971Z,6.67
2023-04-29T01:19:57.289Z,6.17
2023-04-29T01:22:24.873Z,7.23
2023-04-29T01:24:52.483Z,7.13
2023-04-29T01:27:42.891Z,6.33
2023-04-29T01:30:19.882Z,6.73
2023-04-29T01:33:18.770Z,6.90
2023-04-29T01:35:52.647Z,6.47
2023-04-29T01:39:03.170Z,5.87
2023-04-29T01:42:11.857Z,5.60
2023-04-29T01:44:40.956Z,7.30
2023-04-29T01:47:12.469Z,6.90
2023-04-29T01:49:40.225Z,6.60
2023-04-29T01:52:07.751Z,6.43
2023-04-29T01:54:38.666Z,6.70
2023-04-29T01:57:06.179Z,6.60
2023-04-29T01:59:33.751Z,6.87
2023-04-29T02:02:01.256Z,6.50
2023-04-29T02:04:28.984Z,6.90
2023-04-29T02:06:56.565Z,6.23
2023-04-29T02:09:24.031Z,5.93
2023-04-29T02:11:51.522Z,6.70
2023-04-29T02:14:18.996Z,6.03
2023-04-29T02:16:46.552Z,6.53
2023-04-29T02:19:14.261Z,6.23
2023-04-29T02:21:41.785Z,5.43
2023-04-29T02:24:09.398Z,5.53
2023-04-29T02:26:38.470Z,5.20
2023-04-29T02:29:06.231Z,6.10
2023-04-29T02:31:33.732Z,6.10
2023-04-29T02:34:01.337Z,5.70
2023-04-29T02:36:28.920Z,5.70
2023-04-29T02:38:56.598Z,5.77
2023-04-29T02:41:26.009Z,6.60
2023-04-29T02:43:53.557Z,5.53
2023-04-29T02:46:21.208Z,6.20
2023-04-29T02:48:48.856Z,7.70
2023-04-29T02:51:16.526Z,6.10
2023-04-29T02:53:46.783Z,5.33
2023-04-29T02:56:14.502Z,6.50
2023-04-29T02:58:42.582Z,6.90
2023-04-29T03:01:13.271Z,5.80
2023-04-29T03:03:41.152Z,6.70
2023-04-29T03:06:08.786Z,7.00
2023-04-29T03:08:39.265Z,7.73
2023-04-29T03:11:07.022Z,5.93
2023-04-29T03:13:34.678Z,6.03
2023-04-29T03:16:02.426Z,5.97
2023-04-29T03:18:30.150Z,5.47
2023-04-29T03:20:57.623Z,6.93
2023-04-29T03:23:25.250Z,6.23
2023-04-29T03:25:53.360Z,5.70
2023-04-29T03:28:21.022Z,6.20
2023-04-29T03:30:48.616Z,5.63
2023-04-29T03:33:16.072Z,7.00
2023-04-29T03:35:44.200Z,7.20
2023-04-29T03:38:14.874Z,6.10
2023-04-29T03:40:42.395Z,6.20
2023-04-29T03:43:09.980Z,6.23
2023-04-29T03:45:37.717Z,5.90
2023-04-29T03:48:05.713Z,6.77
2023-04-29T03:50:33.285Z,6.57
2023-04-29T03:53:01.038Z,6.80
2023-04-29T03:55:28.679Z,6.33
2023-04-29T03:57:56.848Z,6.70
2023-04-29T04:00:26.731Z,7.10
2023-04-29T04:02:54.558Z,7.30
2023-04-29T04:05:25.427Z,7.00
2023-04-29T04:07:53.440Z,6.60
2023-04-29T04:10:21.038Z,7.70
2023-04-29T04:12:48.616Z,7.20
2023-04-29T04:15:17.345Z,8.83
2023-04-29T04:17:44.875Z,6.83
2023-04-29T04:20:18.232Z,7.90
2023-04-29T04:22:45.823Z,9.10
2023-04-29T04:25:13.282Z,6.40
2023-04-29T04:27:41.422Z,7.63
2023-04-29T04:30:09.507Z,8.23
2023-04-29T04:32:37.058Z,7.40
2023-04-29T04:35:04.854Z,6.90
2023-04-29T04:37:32.298Z,7.90
2023-04-29T04:39:59.802Z,7.70
2023-04-29T04:42:27.323Z,6.40
2023-04-29T04:44:55.230Z,6.17
2023-04-29T04:47:22.794Z,7.30
2023-04-29T04:49:50.367Z,6.60
2023-04-29T04:52:21.596Z,7.20
2023-04-29T04:54:49.159Z,8.07
2023-04-29T04:57:16.839Z,7.60
2023-04-29T04:59:44.581Z,6.50
2023-04-29T05:02:12.316Z,6.00
2023-04-29T05:04:39.880Z,6.80
2023-04-29T05:07:07.390Z,7.90
2023-04-29T05:09:35.108Z,7.80
2023-04-29T05:12:02.770Z,7.17
2023-04-29T05:14:30.319Z,6.57
2023-04-29T05:17:01.200Z,7.03
2023-04-29T05:19:28.952Z,8.10
2023-04-29T05:21:56.595Z,6.57
2023-04-29T05:24:24.281Z,6.60
2023-04-29T05:26:52.238Z,6.77
2023-04-29T05:29:19.929Z,6.73
2023-04-29T05:31:47.864Z,7.17
2023-04-29T05:34:15.743Z,7.50
2023-04-29T05:36:43.222Z,6.40
2023-04-29T05:39:10.862Z,6.37
2023-04-29T05:41:38.348Z,6.30
2023-04-29T05:44:05.991Z,6.73
2023-04-29T05:46:33.555Z,6.40
2023-04-29T05:49:01.232Z,7.73
2023-04-29T05:51:28.886Z,7.00
2023-04-29T05:53:56.829Z,6.60
2023-04-29T05:56:24.610Z,6.57
2023-04-29T05:58:52.458Z,6.77
2023-04-29T06:01:19.966Z,6.53
2023-04-29T06:03:47.792Z,6.43
2023-04-29T06:06:15.893Z,8.07
2023-04-29T06:08:43.422Z,8.00
2023-04-29T06:11:10.973Z,7.60
2023-04-29T06:13:38.500Z,7.07
2023-04-29T06:16:06.334Z,6.07
2023-04-29T06:18:34.077Z,6.70
2023-04-29T06:21:01.624Z,7.23
2023-04-29T06:23:29.205Z,7.00
2023-04-29T06:25:56.739Z,7.23
2023-04-29T06:28:24.394Z,6.70
2023-04-29T06:30:55.044Z,7.40
2023-04-29T06:33:22.718Z,6.20
2023-04-29T06:35:50.301Z,6.97
2023-04-29T06:38:17.921Z,6.90
2023-04-29T06:40:45.481Z,6.73
2023-04-29T06:43:13.252Z,5.97
2023-04-29T06:45:40.781Z,7.03
2023-04-29T06:48:08.365Z,7.57
2023-04-29T06:50:36.651Z,6.43
2023-04-29T06:53:04.394Z,6.83
2023-04-29T06:55:31.999Z,7.93
2023-04-29T06:57:59.762Z,6.60
2023-04-29T07:00:27.343Z,6.50
2023-04-29T07:02:55.726Z,7.37
2023-04-29T07:05:23.623Z,6.20
2023-04-29T07:07:51.180Z,6.10
2023-04-29T07:10:18.889Z,6.10
2023-04-29T07:12:46.487Z,6.80
2023-04-29T07:15:14.917Z,6.87
2023-04-29T07:17:42.504Z,7.00
2023-04-29T07:20:10.514Z,6.10
2023-04-29T07:22:38.117Z,7.50
2023-04-29T07:25:06.250Z,6.73
2023-04-29T07:27:35.379Z,7.30
2023-04-29T07:30:03.594Z,7.60
2023-04-29T07:32:34.199Z,7.73
2023-04-29T07:35:01.926Z,7.57
2023-04-29T07:37:29.453Z,7.70
2023-04-29T07:39:56.942Z,6.20
2023-04-29T07:42:24.448Z,6.57
2023-04-29T07:44:52.158Z,7.47
2023-04-29T07:47:19.753Z,7.30
2023-04-29T07:49:47.284Z,7.13
2023-04-29T07:52:14.763Z,7.47
2023-04-29T07:54:42.235Z,6.40
2023-04-29T07:57:09.704Z,6.23
2023-04-29T07:59:37.257Z,6.00
2023-04-29T08:02:04.720Z,7.70
2023-04-29T08:04:32.443Z,6.80
2023-04-29T08:07:00.231Z,6.20
2023-04-29T08:09:27.681Z,7.07
2023-04-29T08:11:55.184Z,6.90
2023-04-29T08:14:22.638Z,6.63
2023-04-29T08:16:50.288Z,7.43
2023-04-29T08:19:17.733Z,7.53
2023-04-29T08:21:45.250Z,6.00
2023-04-29T08:24:12.753Z,5.60
2023-04-29T08:26:43.386Z,8.00
2023-04-29T08:29:10.909Z,5.47
2023-04-29T08:31:38.490Z,6.30
2023-04-29T08:34:06.104Z,6.50
2023-04-29T08:36:34.038Z,5.60
2023-04-29T08:39:01.811Z,5.60
2023-04-29T08:41:29.614Z,6.10
2023-04-29T08:43:57.214Z,6.80
2023-04-29T08:46:28.681Z,10.57
2023-04-29T08:48:59.928Z,9.60
2023-04-29T08:51:28.398Z,8.47
2023-04-29T08:53:57.228Z,8.57
2023-04-29T08:56:26.175Z,7.17
2023-04-29T08:58:58.665Z,7.70
2023-04-29T09:01:30.342Z,7.57
2023-04-29T09:04:24.110Z,7.60
2023-04-29T09:06:53.070Z,6.40
2023-04-29T09:09:21.325Z,5.70
2023-04-29T09:11:48.824Z,5.70
2023-04-29T09:14:16.809Z,6.73
2023-04-29T09:16:47.700Z,5.80
2023-04-29T09:19:35.691Z,6.60
2023-04-29T09:22:04.879Z,6.07
2023-04-29T09:24:33.040Z,6.80
2023-04-29T09:27:01.882Z,6.00
2023-04-29T09:29:29.869Z,7.80
2023-04-29T09:31:59.053Z,6.70
2023-04-29T09:34:38.097Z,7.20
2023-04-29T09:37:08.095Z,7.20
2023-04-29T09:39:41.657Z,6.53
2023-04-29T09:42:09.841Z,6.50
2023-04-29T09:44:37.474Z,8.00
2023-04-29T09:47:07.132Z,7.07
2023-04-29T09:49:40.025Z,6.50
2023-04-29T09:52:10.162Z,6.27
2023-04-29T09:54:39.351Z,5.13
2023-04-29T09:57:09.377Z,5.10
2023-04-29T09:59:39.272Z,4.83
2023-04-29T10:02:20.328Z,5.00
2023-04-29T10:04:52.754Z,3.80
2023-04-29T10:07:20.587Z,5.63
2023-04-29T10:09:49.215Z,5.37
2023-04-29T10:12:19.216Z,4.73
2023-04-29T10:14:58.925Z,4.30
2023-04-29T10:17:47.726Z,3.70
2023-04-29T10:20:19.963Z,3.63
2023-04-29T10:22:49.477Z,4.53
2023-04-29T10:25:19.376Z,4.00
2023-04-29T10:27:49.164Z,5.03
2023-04-29T10:30:20.904Z,4.57
2023-04-29T10:32:52.056Z,4.00
2023-04-29T10:35:23.946Z,3.70
2023-04-29T10:37:53.210Z,4.30
2023-04-29T10:40:49.225Z,3.40
2023-04-29T10:43:16.913Z,3.60
2023-04-29T10:45:44.457Z,6.37
2023-04-29T10:48:13.549Z,19.07
2023-04-29T10:50:53.123Z,19.00
2023-04-29T10:53:21.385Z,10.70
2023-04-29T10:55:54.474Z,13.30
2023-04-29T10:58:39.405Z,13.37
2023-04-29T11:01:11.541Z,11.23
2023-04-29T11:03:56.032Z,8.73
2023-04-29T11:06:25.478Z,9.00
2023-04-29T11:09:24.688Z,6.63
2023-04-29T11:12:08.395Z,6.13
2023-04-29T11:14:51.625Z,6.33
2023-04-29T11:17:20.938Z,5.83
2023-04-29T11:19:52.265Z,4.50
2023-04-29T11:22:21.471Z,4.10
2023-04-29T11:24:56.833Z,3.57
2023-04-29T11:27:55.764Z,3.40
2023-04-29T11:30:23.597Z,2.63
2023-04-29T11:32:52.282Z,2.30
2023-04-29T11:35:20.718Z,2.37
2023-04-29T11:37:48.302Z,2.70
2023-04-29T11:40:17.283Z,2.20
2023-04-29T11:42:47.121Z,2.57
2023-04-29T11:45:15.873Z,2.70
2023-04-29T11:47:46.322Z,2.57
2023-04-29T11:50:17.172Z,2.80
2023-04-29T11:52:46.491Z,2.40
2023-04-29T11:55:14.949Z,3.10
2023-04-29T11:57:45.408Z,11.77
2023-04-29T12:00:14.433Z,18.43
2023-04-29T12:02:49.049Z,20.37
2023-04-29T12:05:17.777Z,11.77
2023-04-29T12:07:45.668Z,12.97
2023-04-29T12:10:13.757Z,9.17
2023-04-29T12:12:44.114Z,5.07
2023-04-29T12:15:12.965Z,4.57
2023-04-29T12:17:41.174Z,5.10
2023-04-29T12:20:12.187Z,4.20
2023-04-29T12:22:39.976Z,3.80
2023-04-29T12:25:08.260Z,4.00
2023-04-29T12:27:37.278Z,3.88
2023-04-29T12:30:09.954Z,3.57
2023-04-29T12:32:38.715Z,3.17
2023-04-29T12:35:07.670Z,2.40
2023-04-29T12:37:35.622Z,3.17
2023-04-29T12:40:03.341Z,2.13
2023-04-29T12:42:36.950Z,3.37
2023-04-29T12:45:06.904Z,3.00
2023-04-29T12:47:37.744Z,2.90
2023-04-29T12:50:07.575Z,1.97
2023-04-29T12:52:36.717Z,3.03
2023-04-29T12:55:05.117Z,3.17
2023-04-29T12:57:35.645Z,2.40
2023-04-29T13:00:04.082Z,2.10
2023-04-29T13:02:31.697Z,2.83
2023-04-29T13:04:59.624Z,3.00
2023-04-29T13:07:27.445Z,2.40
2023-04-29T13:09:55.654Z,2.80
2023-04-29T13:12:23.122Z,2.10
2023-04-29T13:14:51.538Z,2.77
2023-04-29T13:17:19.166Z,1.73
2023-04-29T13:19:51.596Z,2.30
2023-04-29T13:22:19.867Z,2.30
2023-04-29T13:24:47.676Z,1.67
2023-04-29T13:27:15.369Z,2.27
2023-04-29T13:29:42.957Z,1.60
2023-04-29T13:32:10.578Z,1.90
2023-04-29T13:34:43.518Z,1.90
2023-04-29T13:37:11.995Z,1.43
2023-04-29T13:39:39.806Z,1.73
2023-04-29T13:42:08.750Z,2.43
2023-04-29T13:44:49.756Z,1.40
2023-04-29T13:47:25.599Z,1.73
2023-04-29T13:50:22.709Z,1.20
2023-04-29T14:17:52.021Z,16.73
2023-04-29T14:20:19.779Z,21.77
2023-04-29T18:19:16.736Z,20.65
2023-04-29T18:21:47.255Z,16.42
2023-04-29T18:24:14.717Z,13.55
2023-04-29T18:26:42.336Z,13.00
2023-04-29T18:29:09.988Z,9.73
2023-04-29T18:31:37.894Z,8.47
2023-04-29T18:34:08.342Z,10.10
2023-04-29T18:36:36.066Z,6.07
2023-04-29T18:39:03.676Z,6.67
2023-04-29T18:41:31.291Z,6.57
2023-04-29T18:43:59.018Z,4.30
2023-04-29T18:46:26.655Z,6.27
2023-04-29T18:48:54.330Z,5.87
2023-04-29T18:51:22.949Z,3.80
2023-04-29T18:53:50.639Z,5.00
2023-04-29T18:56:18.481Z,4.50
2023-04-29T18:58:46.035Z,3.67
2023-04-29T19:01:13.619Z,4.30
2023-04-29T19:03:41.456Z,3.67
2023-04-29T19:06:09.096Z,3.90
2023-04-29T19:08:36.763Z,3.10
2023-04-29T19:11:04.438Z,4.63
2023-04-29T19:13:31.897Z,2.90
2023-04-29T19:15:59.730Z,3.60
2023-04-29T19:18:27.380Z,3.23
2023-04-29T19:20:56.343Z,3.07
2023-04-29T19:23:23.957Z,2.67
2023-04-29T19:25:51.429Z,2.33
2023-04-29T19:28:19.562Z,2.37
2023-04-29T19:30:47.268Z,2.23
2023-04-29T19:33:15.019Z,2.30
2023-04-29T19:35:43.002Z,2.30
2023-04-29T19:38:11.271Z,2.43
2023-04-29T19:40:38.774Z,2.63
2023-04-29T19:43:06.335Z,2.40
2023-04-29T19:45:33.874Z,2.60
2023-04-29T19:48:02.462Z,3.80
2023-04-29T19:50:30.294Z,2.57
2023-04-29T19:52:58.659Z,2.10
2023-04-29T19:55:26.618Z,1.73
2023-04-29T19:57:54.194Z,1.90
2023-04-29T20:00:21.907Z,1.53
2023-04-29T20:02:52.273Z,2.47
2023-04-29T20:05:20.165Z,2.77
2023-04-29T20:07:47.729Z,2.37
2023-04-29T20:10:15.330Z,2.30
2023-04-29T20:12:42.918Z,2.00
2023-04-29T20:15:11.745Z,1.97
2023-04-29T20:17:39.705Z,2.23
2023-04-29T20:20:09.325Z,2.80
2023-04-29T20:22:37.210Z,3.27
2023-04-29T20:25:05.395Z,2.93
2023-04-29T20:27:33.026Z,2.80
2023-04-29T20:30:01.100Z,2.80
2023-04-29T20:32:28.737Z,3.53
2023-04-29T20:34:56.342Z,2.50
2023-04-29T20:37:23.900Z,2.40
2023-04-29T20:39:51.647Z,2.80
2023-04-29T20:42:19.240Z,3.70
2023-04-29T20:44:46.973Z,2.57
2023-04-29T20:47:14.483Z,2.57
2023-04-29T20:49:42.897Z,3.83
2023-04-29T20:52:10.872Z,2.40
2023-04-29T20:54:39.344Z,2.60
2023-04-29T20:57:07.098Z,2.30
2023-04-29T20:59:34.906Z,2.70
2023-04-29T21:02:02.632Z,2.97
2023-04-29T21:04:30.277Z,2.50
2023-04-29T21:06:58.088Z,2.90
2023-04-29T21:09:25.859Z,2.10
2023-04-29T21:11:53.460Z,4.23
2023-04-29T21:14:21.046Z,2.77
2023-04-29T21:16:48.628Z,2.60
2023-04-29T21:19:16.132Z,3.00
2023-04-29T21:21:44.098Z,3.00
2023-04-29T21:24:11.695Z,4.10
2023-04-29T21:26:39.199Z,2.37
2023-04-29T21:29:06.946Z,2.60
2023-04-29T21:31:34.711Z,1.73
2023-04-29T21:34:02.426Z,2.77
2023-04-29T21:36:30.017Z,2.60
2023-04-29T21:38:57.574Z,2.37
2023-04-29T21:41:31.388Z,2.70
2023-04-29T21:44:00.843Z,1.70
2023-04-29T21:46:29.301Z,2.47
2023-04-29T21:48:58.791Z,2.17
2023-04-29T21:51:26.724Z,3.10
2023-04-29T21:53:54.252Z,2.30
2023-04-29T21:56:24.820Z,2.10
2023-04-29T21:58:55.348Z,3.97
2023-04-29T22:01:48.955Z,2.83
2023-04-29T22:04:17.433Z,2.90
2023-04-29T22:06:45.402Z,2.07
2023-04-29T22:09:13.387Z,1.93
2023-04-29T22:11:41.089Z,2.03
2023-04-29T22:14:08.850Z,2.00
2023-04-29T22:16:36.449Z,3.37
2023-04-29T22:19:05.249Z,2.93
2023-04-29T22:21:33.385Z,2.63
2023-04-29T22:24:00.920Z,2.90
2023-04-29T22:26:28.435Z,2.20
2023-04-29T22:28:59.080Z,2.10
2023-04-29T22:31:27.264Z,1.80
2023-04-29T22:33:54.885Z,1.90
2023-04-29T22:36:22.548Z,2.53
2023-04-29T22:38:50.084Z,2.03
2023-04-29T22:41:17.864Z,2.30
2023-04-29T22:43:45.681Z,2.10
2023-04-29T22:46:13.366Z,2.83
2023-04-29T22:48:42.601Z,2.60
2023-04-29T22:51:10.217Z,3.37
2023-04-29T22:53:37.725Z,2.30
2023-04-29T22:56:05.716Z,2.40
2023-04-29T22:58:34.149Z,2.63
2023-04-29T23:01:02.242Z,3.20
2023-04-29T23:03:29.776Z,2.20
2023-04-29T23:06:01.290Z,2.57
2023-04-29T23:08:29.098Z,3.67
2023-04-29T23:10:56.613Z,2.90
2023-04-29T23:13:24.352Z,2.20
2023-04-29T23:15:52.569Z,2.70
2023-04-29T23:18:20.066Z,2.53
2023-04-29T23:20:48.183Z,2.47
2023-04-29T23:23:15.711Z,2.53
2023-04-29T23:25:43.837Z,2.17
2023-04-29T23:28:11.451Z,1.97
2023-04-29T23:30:39.033Z,2.27
2023-04-29T23:33:06.857Z,2.23
2023-04-29T23:35:34.410Z,4.03
2023-04-29T23:38:02.012Z,2.50
2023-04-29T23:40:31.129Z,3.00
2023-04-29T23:42:59.364Z,2.00
2023-04-29T23:45:27.391Z,2.20
2023-04-29T23:47:54.921Z,2.03
2023-04-29T23:50:22.965Z,2.60
2023-04-29T23:52:50.420Z,3.07
2023-04-29T23:55:17.975Z,2.70
2023-04-29T23:57:45.587Z,2.60
